Time;durP1;ratioP1;P1;durP2;ratioP2;P2;SDS_P1;SDS_P2;PMS_P1;PMS_P2;Temp;Humidity;BMP_temperature;BMP_pressure;BME280_temperature;BME280_humidity;BME280_pressure;Samples;Min_cycle;Max_cycle;Signal;HPM_P1;HPM_P2
2021/12/08 00:00:59;;;;;;;14.00;8.80;;;;;;;;;;5025340;28;20444;-83
2021/12/08 00:03:28;;;;;;;17.37;9.40;;;;;;;;;;5025014;28;20555;-82
2021/12/08 00:05:56;;;;;;;13.87;10.20;;;;;;;;;;5026030;28;20456;-84
2021/12/08 00:08:23;;;;;;;16.20;9.30;;;;;;;;;;5025646;28;20530;-83
2021/12/08 00:13:02;;;;;;;19.43;8.50;;;;;;;;;;5026477;28;20466;-84
2021/12/08 00:13:49;;;;;;;15.57;8.00;;;;;;;;;;5025577;28;20482;-83
2021/12/08 00:16:15;;;;;;;21.40;10.00;;;;;;;;;;5025496;28;20457;-83
2021/12/08 00:18:47;;;;;;;13.27;8.40;;;;;;;;;;5025559;28;20225;-82
2021/12/08 00:21:15;;;;;;;12.53;8.73;;;;;;;;;;5024112;28;20551;-83
2021/12/08 00:23:41;;;;;;;11.70;8.53;;;;;;;;;;5026720;28;20835;-84
2021/12/08 00:26:07;;;;;;;14.13;8.93;;;;;;;;;;5026211;28;20473;-83
2021/12/08 00:28:34;;;;;;;14.50;8.57;;;;;;;;;;5025077;28;20484;-84
2021/12/08 00:31:01;;;;;;;14.87;8.13;;;;;;;;;;5027821;28;20464;-84
2021/12/08 00:33:28;;;;;;;12.23;8.23;;;;;;;;;;5025004;28;20522;-83
2021/12/08 00:35:55;;;;;;;13.83;7.93;;;;;;;;;;5025276;28;20469;-84
2021/12/08 00:38:22;;;;;;;14.93;8.87;;;;;;;;;;5025309;28;20542;-83
2021/12/08 00:40:49;;;;;;;13.70;8.20;;;;;;;;;;5025931;28;20453;-83
2021/12/08 00:43:17;;;;;;;14.10;8.47;;;;;;;;;;5025102;28;21087;-81
2021/12/08 00:45:43;;;;;;;14.00;8.27;;;;;;;;;;5024961;28;20457;-82
2021/12/08 00:48:10;;;;;;;18.17;9.50;;;;;;;;;;5025260;28;20488;-83
2021/12/08 00:50:38;;;;;;;11.20;7.30;;;;;;;;;;5026734;28;20454;-83
2021/12/08 00:53:04;;;;;;;15.77;8.17;;;;;;;;;;5024077;28;20484;-83
2021/12/08 00:55:32;;;;;;;11.37;7.63;;;;;;;;;;5025129;28;20850;-84
2021/12/08 00:57:58;;;;;;;12.37;7.90;;;;;;;;;;5024566;28;20484;-83
2021/12/08 01:00:27;;;;;;;14.03;8.33;;;;;;;;;;5025303;28;20527;-83
2021/12/08 01:02:53;;;;;;;13.20;7.47;;;;;;;;;;5022960;28;20538;-83
2021/12/08 01:05:22;;;;;;;11.17;7.83;;;;;;;;;;5024550;28;20457;-83
2021/12/08 01:07:48;;;;;;;11.17;6.97;;;;;;;;;;5024571;28;20480;-83
2021/12/08 01:10:17;;;;;;;17.43;8.73;;;;;;;;;;5022129;28;21291;-83
2021/12/08 01:12:45;;;;;;;13.30;7.87;;;;;;;;;;5023489;28;20559;-83
2021/12/08 01:15:11;;;;;;;12.87;7.57;;;;;;;;;;5024570;28;20452;-83
2021/12/08 01:17:38;;;;;;;16.80;9.03;;;;;;;;;;5023902;28;21123;-83
2021/12/08 01:20:06;;;;;;;15.93;8.93;;;;;;;;;;5024912;28;20527;-85
2021/12/08 01:22:32;;;;;;;11.80;7.43;;;;;;;;;;5024890;28;20543;-83
2021/12/08 01:24:58;;;;;;;12.33;7.73;;;;;;;;;;5025687;28;20485;-83
2021/12/08 01:27:24;;;;;;;19.20;7.77;;;;;;;;;;5024828;28;20477;-83
2021/12/08 01:29:52;;;;;;;12.53;8.07;;;;;;;;;;5023884;28;20484;-81
2021/12/08 01:32:19;;;;;;;16.20;8.63;;;;;;;;;;5024403;28;20515;-83
2021/12/08 01:34:45;;;;;;;13.90;7.23;;;;;;;;;;5025250;28;20487;-83
2021/12/08 01:37:12;;;;;;;16.53;9.03;;;;;;;;;;5024473;28;20842;-83
2021/12/08 01:39:38;;;;;;;15.50;8.60;;;;;;;;;;5024942;28;20811;-83
2021/12/08 01:42:05;;;;;;;15.53;8.40;;;;;;;;;;5023708;28;21045;-83
2021/12/08 01:47:16;;;;;;;13.20;8.60;;;;;;;;;;5024953;28;20472;-83
2021/12/08 01:49:43;;;;;;;17.20;9.57;;;;;;;;;;5024669;28;20465;-83
2021/12/08 01:52:09;;;;;;;16.83;8.87;;;;;;;;;;5024030;28;20902;-83
2021/12/08 01:54:35;;;;;;;12.30;7.80;;;;;;;;;;5024562;28;20452;-83
2021/12/08 01:57:01;;;;;;;11.77;7.70;;;;;;;;;;5024471;28;21065;-83
2021/12/08 01:59:28;;;;;;;12.00;8.40;;;;;;;;;;5021258;28;20462;-83
2021/12/08 02:01:54;;;;;;;12.93;8.57;;;;;;;;;;5022158;28;20482;-83
2021/12/08 02:04:21;;;;;;;9.73;6.80;;;;;;;;;;5023210;28;20535;-83
2021/12/08 02:06:48;;;;;;;15.47;8.00;;;;;;;;;;5024933;28;20476;-82
2021/12/08 02:09:16;;;;;;;14.53;8.47;;;;;;;;;;5024149;28;20484;-83
2021/12/08 02:11:45;;;;;;;15.23;9.40;;;;;;;;;;5024249;28;20918;-84
2021/12/08 02:14:11;;;;;;;12.40;8.30;;;;;;;;;;5028078;28;20463;-83
2021/12/08 02:16:37;;;;;;;18.40;8.10;;;;;;;;;;5027511;28;20488;-83
2021/12/08 02:19:04;;;;;;;22.43;8.90;;;;;;;;;;5044432;22;20497;-80
2021/12/08 02:21:32;;;;;;;12.30;7.90;;;;;;;;;;5059404;28;20479;-81
2021/12/08 02:23:59;;;;;;;14.23;7.90;;;;;;;;;;5060855;28;20488;-80
2021/12/08 02:26:26;;;;;;;13.87;7.80;;;;;;;;;;5061413;28;20455;-80
2021/12/08 02:28:53;;;;;;;22.37;8.10;;;;;;;;;;5059237;28;20463;-81
2021/12/08 02:31:29;;;;;;;17.73;8.13;;;;;;;;;;5055285;28;20487;-80
2021/12/08 02:47:52;;;;;;;19.97;8.03;;;;;;;;;;5057562;28;20850;-80
2021/12/08 02:50:19;;;;;;;14.90;8.37;;;;;;;;;;5062463;28;20478;-80
2021/12/08 02:52:47;;;;;;;14.83;7.10;;;;;;;;;;5062482;28;20471;-80
2021/12/08 02:55:13;;;;;;;14.10;7.83;;;;;;;;;;5062222;28;20448;-80
2021/12/08 02:57:39;;;;;;;17.33;8.30;;;;;;;;;;5053628;28;20475;-80
2021/12/08 03:00:07;;;;;;;13.80;9.23;;;;;;;;;;5045460;28;20517;-80
2021/12/08 03:02:33;;;;;;;12.77;6.80;;;;;;;;;;5058652;28;20475;-79
2021/12/08 03:04:59;;;;;;;13.27;8.33;;;;;;;;;;5055930;28;20514;-80
2021/12/08 03:07:25;;;;;;;13.60;8.07;;;;;;;;;;5054448;28;20898;-79
2021/12/08 03:09:53;;;;;;;11.90;7.40;;;;;;;;;;5057716;28;20548;-80
2021/12/08 03:12:27;;;;;;;13.17;8.40;;;;;;;;;;5059284;28;20508;-80
2021/12/08 03:14:53;;;;;;;15.70;8.90;;;;;;;;;;5057385;28;20810;-80
2021/12/08 03:17:20;;;;;;;18.07;8.50;;;;;;;;;;5057310;28;20522;-80
2021/12/08 03:19:46;;;;;;;11.90;8.27;;;;;;;;;;5057807;28;20589;-81
2021/12/08 03:22:13;;;;;;;12.40;8.80;;;;;;;;;;5060339;28;21057;-80
2021/12/08 03:24:43;;;;;;;13.20;7.87;;;;;;;;;;5058422;28;20482;-80
2021/12/08 03:27:13;;;;;;;16.20;8.57;;;;;;;;;;5057457;28;20471;-80
2021/12/08 03:29:47;;;;;;;18.30;9.00;;;;;;;;;;5056519;28;20472;-80
2021/12/08 03:32:16;;;;;;;14.80;7.90;;;;;;;;;;5052411;28;20481;-80
2021/12/08 03:34:50;;;;;;;13.37;7.50;;;;;;;;;;5057357;28;20455;-77
2021/12/08 03:37:17;;;;;;;14.30;6.97;;;;;;;;;;5056120;28;20481;-80
2021/12/08 03:39:44;;;;;;;15.67;7.70;;;;;;;;;;5060036;28;20476;-79
2021/12/08 03:42:11;;;;;;;14.10;7.53;;;;;;;;;;5058811;28;20486;-80
2021/12/08 03:44:38;;;;;;;12.33;7.13;;;;;;;;;;5057728;28;20536;-80
2021/12/08 03:47:13;;;;;;;11.80;6.23;;;;;;;;;;5055772;28;20508;-80
2021/12/08 03:49:39;;;;;;;10.10;6.47;;;;;;;;;;5054730;28;20745;-80
2021/12/08 03:52:06;;;;;;;10.43;7.70;;;;;;;;;;5056322;28;20487;-80
2021/12/08 03:54:32;;;;;;;12.80;7.20;;;;;;;;;;5058762;28;20474;-80
2021/12/08 03:56:58;;;;;;;9.23;6.87;;;;;;;;;;5059236;28;20474;-80
2021/12/08 03:59:26;;;;;;;12.27;6.60;;;;;;;;;;5058587;28;20475;-79
2021/12/08 04:01:52;;;;;;;10.70;6.40;;;;;;;;;;5056015;28;20528;-81
2021/12/08 04:04:18;;;;;;;12.13;6.27;;;;;;;;;;5057474;28;20512;-80
2021/12/08 04:06:48;;;;;;;7.57;6.03;;;;;;;;;;5059156;28;20479;-79
2021/12/08 04:09:23;;;;;;;9.37;6.90;;;;;;;;;;5059732;28;20491;-81
2021/12/08 04:11:50;;;;;;;12.10;7.67;;;;;;;;;;5056586;28;20596;-80
2021/12/08 04:14:18;;;;;;;12.37;6.63;;;;;;;;;;5058161;28;20464;-80
2021/12/08 04:16:48;;;;;;;7.73;6.30;;;;;;;;;;5057992;28;20471;-80
2021/12/08 04:19:15;;;;;;;11.30;7.53;;;;;;;;;;5056873;28;20486;-80
2021/12/08 04:21:42;;;;;;;8.70;6.63;;;;;;;;;;5054623;28;20475;-79
2021/12/08 04:24:09;;;;;;;8.70;6.17;;;;;;;;;;5057999;28;20479;-80
2021/12/08 04:26:37;;;;;;;14.50;7.27;;;;;;;;;;5055589;28;20541;-80
2021/12/08 04:29:04;;;;;;;12.90;7.77;;;;;;;;;;5058184;28;20978;-80
2021/12/08 04:31:32;;;;;;;12.03;7.40;;;;;;;;;;5054015;28;20492;-80
2021/12/08 04:34:02;;;;;;;7.87;6.30;;;;;;;;;;5059886;28;20999;-80
2021/12/08 04:36:33;;;;;;;9.37;6.30;;;;;;;;;;5055011;28;20569;-81
2021/12/08 04:39:03;;;;;;;7.73;6.23;;;;;;;;;;5057723;28;20485;-80
2021/12/08 04:41:35;;;;;;;8.27;6.63;;;;;;;;;;5055917;28;21042;-80
2021/12/08 04:44:09;;;;;;;9.60;6.10;;;;;;;;;;5057621;28;20492;-80
2021/12/08 04:46:55;;;;;;;7.30;6.27;;;;;;;;;;5056284;28;20478;-80
2021/12/08 04:49:38;;;;;;;10.07;6.37;;;;;;;;;;5054622;28;20574;-80
2021/12/08 04:52:13;;;;;;;8.03;6.23;;;;;;;;;;5055876;28;20491;-81
2021/12/08 05:00:28;;;;;;;8.33;6.57;;;;;;;;;;5058502;28;20451;-80
2021/12/08 05:03:21;;;;;;;6.87;6.03;;;;;;;;;;5051642;28;20481;-79
2021/12/08 05:06:05;;;;;;;10.70;7.20;;;;;;;;;;5056857;28;20491;-80
2021/12/08 05:08:40;;;;;;;9.97;6.73;;;;;;;;;;5055734;28;20582;-80
2021/12/08 05:11:07;;;;;;;10.60;7.00;;;;;;;;;;5056272;28;20561;-80
2021/12/08 05:13:34;;;;;;;8.70;6.80;;;;;;;;;;5058673;28;21012;-80
2021/12/08 05:16:00;;;;;;;9.70;7.57;;;;;;;;;;5058330;28;21071;-80
2021/12/08 05:18:28;;;;;;;8.40;6.43;;;;;;;;;;5056143;28;20553;-79
2021/12/08 05:21:01;;;;;;;10.30;7.33;;;;;;;;;;5056848;28;20981;-79
2021/12/08 05:23:30;;;;;;;13.13;8.30;;;;;;;;;;5056689;28;21031;-79
2021/12/08 05:25:58;;;;;;;11.53;7.70;;;;;;;;;;5057628;28;21210;-80
2021/12/08 05:28:25;;;;;;;9.90;7.50;;;;;;;;;;5056937;28;20538;-80
2021/12/08 05:30:52;;;;;;;8.30;6.90;;;;;;;;;;5049359;28;20487;-80
2021/12/08 05:33:19;;;;;;;12.03;7.73;;;;;;;;;;5047688;28;20479;-80
2021/12/08 05:35:45;;;;;;;12.50;8.03;;;;;;;;;;5054288;28;20466;-80
2021/12/08 05:38:13;;;;;;;14.47;7.73;;;;;;;;;;5052182;28;20844;-80
2021/12/08 05:40:41;;;;;;;13.70;8.20;;;;;;;;;;5053992;28;20482;-80
2021/12/08 05:43:08;;;;;;;9.93;7.20;;;;;;;;;;5056775;28;20886;-80
2021/12/08 05:45:35;;;;;;;9.53;8.60;;;;;;;;;;5052586;28;20591;-81
2021/12/08 05:48:02;;;;;;;15.27;8.97;;;;;;;;;;5056143;28;20483;-80
2021/12/08 05:50:30;;;;;;;16.27;8.73;;;;;;;;;;5052664;28;20479;-80
2021/12/08 05:52:57;;;;;;;12.60;7.40;;;;;;;;;;5059713;28;20476;-79
2021/12/08 05:55:24;;;;;;;18.80;8.50;;;;;;;;;;5062039;28;20455;-79
2021/12/08 05:57:51;;;;;;;14.67;9.13;;;;;;;;;;5057140;28;20475;-80
2021/12/08 06:00:20;;;;;;;14.23;8.10;;;;;;;;;;5056695;28;22858;-80
2021/12/08 06:02:46;;;;;;;16.33;8.47;;;;;;;;;;5056986;28;20478;-80
2021/12/08 06:05:13;;;;;;;13.00;7.57;;;;;;;;;;5055035;28;20511;-80
2021/12/08 06:07:40;;;;;;;11.00;7.43;;;;;;;;;;5054012;28;21065;-80
2021/12/08 06:10:09;;;;;;;13.07;7.63;;;;;;;;;;5057777;28;20478;-80
2021/12/08 06:12:36;;;;;;;14.70;9.10;;;;;;;;;;5049416;28;20475;-80
2021/12/08 06:15:03;;;;;;;16.73;10.53;;;;;;;;;;5055601;28;20490;-80
2021/12/08 06:17:31;;;;;;;16.03;10.00;;;;;;;;;;5053539;28;20502;-80
2021/12/08 06:19:58;;;;;;;33.70;18.03;;;;;;;;;;5058269;28;20863;-80
2021/12/08 06:22:25;;;;;;;14.23;8.10;;;;;;;;;;5057574;28;20474;-80
2021/12/08 06:24:52;;;;;;;46.00;28.53;;;;;;;;;;5059732;28;20494;-80
2021/12/08 06:27:18;;;;;;;15.77;11.10;;;;;;;;;;5058447;28;20474;-79
2021/12/08 06:29:47;;;;;;;115.53;52.70;;;;;;;;;;5056280;28;20482;-79
2021/12/08 06:32:14;;;;;;;17.97;11.13;;;;;;;;;;5060602;28;20531;-80
2021/12/08 06:34:42;;;;;;;18.80;11.43;;;;;;;;;;5058490;28;20517;-80
2021/12/08 06:37:10;;;;;;;18.10;12.93;;;;;;;;;;5056337;28;20501;-80
2021/12/08 06:39:40;;;;;;;14.77;10.87;;;;;;;;;;5061398;28;20540;-80
2021/12/08 06:42:08;;;;;;;18.17;10.50;;;;;;;;;;5061151;28;20483;-80
2021/12/08 06:44:36;;;;;;;18.40;11.73;;;;;;;;;;5062023;28;21053;-79
2021/12/08 06:47:05;;;;;;;10.87;7.67;;;;;;;;;;5058825;28;20541;-80
2021/12/08 06:49:32;;;;;;;10.20;7.50;;;;;;;;;;5060693;28;20475;-81
2021/12/08 06:52:00;;;;;;;14.73;9.60;;;;;;;;;;5055564;28;20490;-80
2021/12/08 06:54:28;;;;;;;14.20;7.57;;;;;;;;;;5058063;28;20964;-80
2021/12/08 06:56:56;;;;;;;9.30;8.40;;;;;;;;;;5053619;28;20507;-80
2021/12/08 06:59:25;;;;;;;11.20;7.30;;;;;;;;;;5060518;28;20483;-81
2021/12/08 07:01:59;;;;;;;13.77;9.57;;;;;;;;;;5057566;28;20485;-80
2021/12/08 07:04:32;;;;;;;9.73;6.63;;;;;;;;;;5061666;28;20550;-80
2021/12/08 07:07:01;;;;;;;12.00;7.67;;;;;;;;;;5062188;28;20860;-80
2021/12/08 07:09:31;;;;;;;10.93;6.33;;;;;;;;;;5059812;28;20483;-81
2021/12/08 07:11:59;;;;;;;16.10;7.57;;;;;;;;;;5058871;28;20506;-80
2021/12/08 07:14:26;;;;;;;11.00;6.90;;;;;;;;;;5061471;28;20468;-80
2021/12/08 07:16:53;;;;;;;15.03;7.03;;;;;;;;;;5057464;28;20479;-80
2021/12/08 07:19:27;;;;;;;9.57;6.57;;;;;;;;;;5060152;28;20502;-80
2021/12/08 07:21:56;;;;;;;7.67;6.23;;;;;;;;;;5060841;28;20482;-80
2021/12/08 07:24:26;;;;;;;11.10;7.80;;;;;;;;;;5061611;28;20460;-80
2021/12/08 07:26:55;;;;;;;12.00;7.00;;;;;;;;;;5057470;28;21012;-80
2021/12/08 07:29:24;;;;;;;8.90;6.80;;;;;;;;;;5061527;28;20474;-79
2021/12/08 07:31:52;;;;;;;10.70;6.43;;;;;;;;;;5060909;28;20472;-80
2021/12/08 07:34:19;;;;;;;10.00;6.70;;;;;;;;;;5061151;28;20460;-80
2021/12/08 07:36:47;;;;;;;7.13;6.13;;;;;;;;;;5062321;28;20944;-80
2021/12/08 07:39:17;;;;;;;8.00;6.73;;;;;;;;;;5057947;28;20494;-80
2021/12/08 07:41:46;;;;;;;7.40;6.50;;;;;;;;;;5057289;28;20475;-80
2021/12/08 07:44:13;;;;;;;11.47;7.23;;;;;;;;;;5058561;28;20467;-80
2021/12/08 07:46:41;;;;;;;12.93;6.60;;;;;;;;;;5055910;28;20479;-77
2021/12/08 07:49:09;;;;;;;9.20;5.97;;;;;;;;;;5056318;28;21348;-80
2021/12/08 07:51:38;;;;;;;7.73;5.83;;;;;;;;;;5057386;28;20475;-80
2021/12/08 07:54:05;;;;;;;10.87;6.63;;;;;;;;;;5060032;28;20482;-80
2021/12/08 07:56:33;;;;;;;8.43;5.73;;;;;;;;;;5056299;28;20481;-80
2021/12/08 07:59:01;;;;;;;9.70;6.47;;;;;;;;;;5059083;28;20456;-80
2021/12/08 08:01:29;;;;;;;13.13;5.50;;;;;;;;;;5051606;28;20467;-80
2021/12/08 08:03:56;;;;;;;7.03;5.77;;;;;;;;;;5057853;28;20470;-80
2021/12/08 08:06:24;;;;;;;10.77;5.30;;;;;;;;;;5055000;28;20544;-80
2021/12/08 08:08:51;;;;;;;9.23;5.57;;;;;;;;;;5058757;28;20468;-81
2021/12/08 08:11:20;;;;;;;8.90;5.67;;;;;;;;;;5055556;28;20506;-80
2021/12/08 08:13:48;;;;;;;10.20;5.30;;;;;;;;;;5058980;28;20513;-80
2021/12/08 08:16:23;;;;;;;6.60;4.70;;;;;;;;;;5057483;28;20456;-80
2021/12/08 08:18:54;;;;;;;6.93;4.83;;;;;;;;;;5059363;28;20463;-80
2021/12/08 08:21:22;;;;;;;15.73;5.40;;;;;;;;;;5158897;22;20486;-79
2021/12/08 08:23:48;;;;;;;8.10;5.70;;;;;;;;;;5058535;28;20826;-78
2021/12/08 08:26:15;;;;;;;8.60;5.90;;;;;;;;;;5055245;28;20474;-79
2021/12/08 08:28:42;;;;;;;12.00;5.90;;;;;;;;;;5059516;28;20505;-79
2021/12/08 08:31:10;;;;;;;6.00;5.40;;;;;;;;;;5057242;28;20479;-79
2021/12/08 08:33:38;;;;;;;10.67;5.00;;;;;;;;;;5058275;28;20504;-79
2021/12/08 08:36:07;;;;;;;7.60;5.43;;;;;;;;;;5058487;28;21314;-79
2021/12/08 08:38:36;;;;;;;7.60;5.10;;;;;;;;;;5054683;28;20534;-79
2021/12/08 08:41:05;;;;;;;9.50;5.80;;;;;;;;;;5057479;28;20479;-79
2021/12/08 08:43:31;;;;;;;7.43;5.23;;;;;;;;;;5058142;28;20551;-79
2021/12/08 08:45:59;;;;;;;9.03;5.80;;;;;;;;;;5058709;28;20902;-79
2021/12/08 08:48:27;;;;;;;8.33;5.40;;;;;;;;;;5058694;28;20480;-79
2021/12/08 08:50:55;;;;;;;5.70;4.70;;;;;;;;;;5055180;28;20469;-79
2021/12/08 08:53:24;;;;;;;6.40;5.77;;;;;;;;;;5056846;28;20510;-79
2021/12/08 08:55:51;;;;;;;6.53;4.73;;;;;;;;;;5057315;28;20483;-80
2021/12/08 08:58:19;;;;;;;10.73;4.90;;;;;;;;;;5054891;28;20896;-78
2021/12/08 09:00:50;;;;;;;7.03;6.33;;;;;;;;;;5057698;28;20483;-79
2021/12/08 09:03:18;;;;;;;7.90;4.73;;;;;;;;;;5055129;28;20484;-79
2021/12/08 09:05:51;;;;;;;10.10;5.80;;;;;;;;;;5058557;28;20494;-78
2021/12/08 09:08:18;;;;;;;11.17;6.20;;;;;;;;;;5055691;28;20495;-78
2021/12/08 09:10:47;;;;;;;9.30;6.07;;;;;;;;;;5056923;28;20478;-79
2021/12/08 09:13:15;;;;;;;8.67;7.43;;;;;;;;;;5054273;28;21260;-79
2021/12/08 09:15:42;;;;;;;7.70;6.40;;;;;;;;;;5059266;28;20491;-79
2021/12/08 09:18:10;;;;;;;13.13;7.40;;;;;;;;;;5055313;28;20483;-79
2021/12/08 09:20:39;;;;;;;7.73;6.30;;;;;;;;;;5052122;28;20487;-79
2021/12/08 09:23:08;;;;;;;7.10;6.10;;;;;;;;;;5058154;28;20513;-79
2021/12/08 09:25:37;;;;;;;7.13;6.40;;;;;;;;;;5063110;28;20533;-79
2021/12/08 09:28:07;;;;;;;7.63;5.50;;;;;;;;;;5060235;28;20479;-76
2021/12/08 09:30:36;;;;;;;6.63;6.00;;;;;;;;;;5060018;28;21005;-79
2021/12/08 09:33:05;;;;;;;8.07;5.60;;;;;;;;;;5063231;28;20472;-78
2021/12/08 09:35:33;;;;;;;6.73;5.67;;;;;;;;;;5061076;28;20521;-79
2021/12/08 09:38:01;;;;;;;9.17;5.43;;;;;;;;;;5060326;28;20475;-78
2021/12/08 09:40:33;;;;;;;14.47;5.50;;;;;;;;;;5060838;28;20488;-79
2021/12/08 09:43:01;;;;;;;8.53;6.10;;;;;;;;;;5062352;28;20480;-79
2021/12/08 09:45:28;;;;;;;8.43;6.13;;;;;;;;;;5061457;28;20542;-79
2021/12/08 09:47:55;;;;;;;8.43;5.03;;;;;;;;;;5057918;28;20467;-79
2021/12/08 09:50:21;;;;;;;7.23;6.00;;;;;;;;;;5057034;28;21974;-78
2021/12/08 09:52:48;;;;;;;6.00;5.23;;;;;;;;;;5059602;28;20475;-79
2021/12/08 09:55:16;;;;;;;10.40;6.27;;;;;;;;;;5063488;28;20456;-79
2021/12/08 09:57:44;;;;;;;7.33;5.73;;;;;;;;;;5060216;28;20550;-76
2021/12/08 10:00:11;;;;;;;9.57;6.10;;;;;;;;;;5064079;28;20474;-79
2021/12/08 10:02:38;;;;;;;7.40;5.97;;;;;;;;;;5060144;28;20476;-79
2021/12/08 10:05:06;;;;;;;11.40;5.80;;;;;;;;;;5060986;28;20531;-79
2021/12/08 10:07:32;;;;;;;7.87;6.00;;;;;;;;;;5060231;28;20479;-79
2021/12/08 10:09:59;;;;;;;6.10;5.50;;;;;;;;;;5064057;28;20463;-78
2021/12/08 10:12:25;;;;;;;6.17;5.60;;;;;;;;;;5059486;28;20476;-79
2021/12/08 10:14:53;;;;;;;14.20;6.70;;;;;;;;;;5062378;28;20477;-79
2021/12/08 10:17:20;;;;;;;10.47;5.80;;;;;;;;;;5061557;28;21181;-79
2021/12/08 10:20:03;;;;;;;9.93;6.30;;;;;;;;;;5058387;28;20491;-76
2021/12/08 10:22:30;;;;;;;6.80;5.67;;;;;;;;;;5059962;28;20537;-79
2021/12/08 10:25:03;;;;;;;9.10;6.70;;;;;;;;;;5063083;28;20436;-79
2021/12/08 10:27:30;;;;;;;6.90;5.60;;;;;;;;;;5060080;28;20476;-80
2021/12/08 10:30:11;;;;;;;11.27;8.03;;;;;;;;;;5061759;28;20831;-79
2021/12/08 10:32:38;;;;;;;7.00;5.53;;;;;;;;;;5059803;28;20551;-78
2021/12/08 10:35:07;;;;;;;7.23;5.80;;;;;;;;;;5058236;28;20532;-79
2021/12/08 10:37:33;;;;;;;9.90;7.00;;;;;;;;;;5059305;28;21055;-79
2021/12/08 10:40:07;;;;;;;7.70;5.40;;;;;;;;;;5060100;28;20489;-79
2021/12/08 10:42:34;;;;;;;14.50;6.07;;;;;;;;;;5061043;28;20558;-79
2021/12/08 10:45:08;;;;;;;10.23;6.87;;;;;;;;;;5060710;28;20460;-79
2021/12/08 10:47:36;;;;;;;8.70;6.30;;;;;;;;;;5060916;28;20474;-79
2021/12/08 10:55:37;;;;;;;8.13;7.30;;;;;;;;;;5062568;28;20458;-79
2021/12/08 10:58:03;;;;;;;7.80;6.30;;;;;;;;;;5053803;28;20491;-76
2021/12/08 11:00:31;;;;;;;7.33;5.63;;;;;;;;;;5060031;28;20533;-79
2021/12/08 11:02:58;;;;;;;8.30;5.60;;;;;;;;;;5058707;28;20476;-78
2021/12/08 11:05:31;;;;;;;6.10;5.50;;;;;;;;;;5060878;28;20463;-78
2021/12/08 11:07:58;;;;;;;10.30;6.47;;;;;;;;;;5056722;28;20476;-79
2021/12/08 11:10:25;;;;;;;11.97;5.10;;;;;;;;;;5057343;28;20478;-78
2021/12/08 11:12:51;;;;;;;10.27;7.30;;;;;;;;;;5058860;28;20518;-78
2021/12/08 11:15:20;;;;;;;9.40;5.83;;;;;;;;;;5062019;28;20467;-79
2021/12/08 11:17:47;;;;;;;10.40;8.30;;;;;;;;;;5062654;28;20471;-79
2021/12/08 11:20:14;;;;;;;11.60;6.80;;;;;;;;;;5061520;28;20494;-80
2021/12/08 11:22:43;;;;;;;8.20;6.17;;;;;;;;;;5061531;28;20479;-79
2021/12/08 11:25:21;;;;;;;6.83;5.57;;;;;;;;;;5062734;28;20897;-80
2021/12/08 11:27:47;;;;;;;8.60;6.87;;;;;;;;;;5059964;28;20487;-79
2021/12/08 11:30:14;;;;;;;9.00;6.60;;;;;;;;;;5059220;28;20483;-76
2021/12/08 11:32:40;;;;;;;6.80;6.00;;;;;;;;;;5060075;28;20487;-79
2021/12/08 11:35:18;;;;;;;9.37;6.73;;;;;;;;;;5059048;28;20468;-79
2021/12/08 11:37:45;;;;;;;12.00;6.43;;;;;;;;;;5058338;28;20500;-79
2021/12/08 11:40:15;;;;;;;8.90;7.20;;;;;;;;;;5060737;28;20470;-79
2021/12/08 11:42:42;;;;;;;10.10;7.10;;;;;;;;;;5061199;28;20459;-78
2021/12/08 11:45:12;;;;;;;10.33;6.77;;;;;;;;;;5060075;28;20458;-80
2021/12/08 11:47:38;;;;;;;14.73;7.13;;;;;;;;;;5059745;28;20471;-80
2021/12/08 11:50:08;;;;;;;8.00;6.00;;;;;;;;;;5058343;28;20478;-78
2021/12/08 11:52:35;;;;;;;7.77;6.50;;;;;;;;;;5054959;28;20546;-79
2021/12/08 11:55:04;;;;;;;9.00;6.50;;;;;;;;;;5055362;28;20460;-79
2021/12/08 11:57:35;;;;;;;7.60;6.17;;;;;;;;;;5054885;28;20516;-79
2021/12/08 12:00:06;;;;;;;11.30;6.20;;;;;;;;;;5060383;28;20487;-79
2021/12/08 12:02:35;;;;;;;8.73;6.83;;;;;;;;;;5057510;28;20537;-79
2021/12/08 12:05:01;;;;;;;10.30;7.20;;;;;;;;;;5060341;28;20566;-79
2021/12/08 12:07:28;;;;;;;10.90;8.17;;;;;;;;;;5059236;28;21094;-78
2021/12/08 12:09:54;;;;;;;12.07;6.97;;;;;;;;;;5063359;28;20995;-79
2021/12/08 12:12:22;;;;;;;8.37;6.33;;;;;;;;;;5059758;28;20552;-79
2021/12/08 12:14:48;;;;;;;8.93;6.80;;;;;;;;;;5060141;28;20459;-79
2021/12/08 12:17:15;;;;;;;8.83;7.00;;;;;;;;;;5058166;28;20480;-79
2021/12/08 12:19:45;;;;;;;10.83;7.57;;;;;;;;;;5053814;28;20467;-79
2021/12/08 12:22:17;;;;;;;8.30;6.97;;;;;;;;;;5057694;28;20987;-79
2021/12/08 12:24:57;;;;;;;7.70;6.87;;;;;;;;;;5058550;28;20509;-78
2021/12/08 12:27:32;;;;;;;11.53;6.80;;;;;;;;;;5054675;28;20480;-79
2021/12/08 12:30:04;;;;;;;13.30;7.17;;;;;;;;;;5058335;28;20478;-79
2021/12/08 12:32:32;;;;;;;10.20;8.00;;;;;;;;;;5056808;28;20475;-79
2021/12/08 12:35:10;;;;;;;10.13;6.47;;;;;;;;;;5055709;28;20455;-77
2021/12/08 12:37:37;;;;;;;9.50;6.90;;;;;;;;;;5057106;28;20471;-78
2021/12/08 12:40:04;;;;;;;9.87;7.37;;;;;;;;;;5058262;28;20460;-79
2021/12/08 12:42:44;;;;;;;9.50;6.43;;;;;;;;;;5054803;28;20478;-79
2021/12/08 12:45:13;;;;;;;8.30;7.20;;;;;;;;;;5055709;28;21059;-79
2021/12/08 12:47:40;;;;;;;10.10;6.43;;;;;;;;;;5055285;28;20476;-78
2021/12/08 12:50:11;;;;;;;10.73;6.60;;;;;;;;;;5056327;28;21034;-79
2021/12/08 12:52:38;;;;;;;8.13;6.37;;;;;;;;;;5052198;28;20491;-79
2021/12/08 12:55:08;;;;;;;12.90;6.90;;;;;;;;;;5057196;28;20501;-78
2021/12/08 13:00:29;;;;;;;10.07;8.00;;;;;;;;;;5125434;27;20651;-79
2021/12/08 13:02:55;;;;;;;8.13;7.00;;;;;;;;;;5072396;27;20478;-79
2021/12/08 13:05:22;;;;;;;11.77;6.70;;;;;;;;;;5057677;28;20479;-79
2021/12/08 13:07:56;;;;;;;8.20;7.33;;;;;;;;;;5072831;28;20520;-79
2021/12/08 13:10:29;;;;;;;8.63;6.40;;;;;;;;;;5076616;28;20461;-79
2021/12/08 13:13:08;;;;;;;10.53;6.90;;;;;;;;;;5077062;28;20481;-79
2021/12/08 13:15:38;;;;;;;16.57;7.70;;;;;;;;;;5076538;28;20442;-79
2021/12/08 13:18:05;;;;;;;11.00;7.00;;;;;;;;;;5077985;28;20471;-78
2021/12/08 13:20:33;;;;;;;11.63;7.30;;;;;;;;;;5079181;28;20482;-79
2021/12/08 13:23:01;;;;;;;14.83;6.80;;;;;;;;;;5075871;28;20491;-79
2021/12/08 13:25:31;;;;;;;11.50;6.47;;;;;;;;;;5077896;28;20470;-79
2021/12/08 13:28:08;;;;;;;8.97;7.30;;;;;;;;;;5078084;28;20474;-79
2021/12/08 13:30:41;;;;;;;9.30;6.80;;;;;;;;;;5079182;28;20519;-79
2021/12/08 13:33:21;;;;;;;10.20;7.03;;;;;;;;;;5078420;28;20475;-79
2021/12/08 13:35:47;;;;;;;11.27;7.00;;;;;;;;;;5078424;28;20463;-79
2021/12/08 13:38:13;;;;;;;10.93;7.47;;;;;;;;;;5079639;28;20532;-80
2021/12/08 13:40:40;;;;;;;10.90;7.80;;;;;;;;;;5079898;28;20470;-79
2021/12/08 13:43:08;;;;;;;12.00;7.83;;;;;;;;;;5078995;28;20550;-79
2021/12/08 13:45:42;;;;;;;15.10;6.90;;;;;;;;;;5080028;28;20462;-79
2021/12/08 13:48:08;;;;;;;9.80;7.77;;;;;;;;;;5080199;28;20466;-79
2021/12/08 13:50:35;;;;;;;12.10;8.23;;;;;;;;;;5079626;28;20547;-79
2021/12/08 13:53:08;;;;;;;15.00;8.10;;;;;;;;;;5079042;28;21057;-79
2021/12/08 13:55:36;;;;;;;16.87;9.93;;;;;;;;;;5080175;28;20473;-79
2021/12/08 13:58:11;;;;;;;11.67;7.53;;;;;;;;;;5079077;28;20493;-79
2021/12/08 14:00:38;;;;;;;10.50;7.60;;;;;;;;;;5081104;28;21394;-79
2021/12/08 14:03:12;;;;;;;8.37;6.57;;;;;;;;;;5078386;28;20489;-78
2021/12/08 14:05:40;;;;;;;8.80;6.77;;;;;;;;;;5078601;28;20517;-80
2021/12/08 14:08:08;;;;;;;8.90;6.83;;;;;;;;;;5078628;28;20475;-79
2021/12/08 14:10:35;;;;;;;8.90;7.03;;;;;;;;;;5073010;28;20552;-79
2021/12/08 14:13:04;;;;;;;10.97;6.80;;;;;;;;;;5065836;28;20480;-79
2021/12/08 14:15:32;;;;;;;13.40;7.57;;;;;;;;;;5066833;28;20535;-79
2021/12/08 14:18:17;;;;;;;14.80;8.00;;;;;;;;;;5064528;28;21067;-78
2021/12/08 14:20:44;;;;;;;8.50;7.23;;;;;;;;;;5066617;28;20487;-79
2021/12/08 14:23:10;;;;;;;11.13;7.80;;;;;;;;;;5065403;28;20466;-79
2021/12/08 14:25:38;;;;;;;14.13;8.20;;;;;;;;;;5066230;28;20972;-79
2021/12/08 14:28:23;;;;;;;12.13;8.53;;;;;;;;;;5065856;28;20900;-79
2021/12/08 14:30:49;;;;;;;11.00;8.77;;;;;;;;;;5066225;28;20468;-79
2021/12/08 14:33:22;;;;;;;12.70;9.13;;;;;;;;;;5047876;28;20873;-79
2021/12/08 14:35:53;;;;;;;13.17;8.60;;;;;;;;;;5047064;28;20518;-79
2021/12/08 14:38:19;;;;;;;13.77;8.17;;;;;;;;;;5043707;28;20554;-79
2021/12/08 14:40:45;;;;;;;15.20;8.00;;;;;;;;;;5044924;28;20545;-79
2021/12/08 14:43:23;;;;;;;11.93;7.80;;;;;;;;;;5060672;28;21004;-80
2021/12/08 14:45:49;;;;;;;13.93;9.33;;;;;;;;;;5065690;28;20528;-79
2021/12/08 14:48:17;;;;;;;10.57;7.77;;;;;;;;;;5065298;28;20483;-78
2021/12/08 14:50:43;;;;;;;8.40;7.60;;;;;;;;;;5064334;28;20476;-78
2021/12/08 14:53:12;;;;;;;8.47;7.40;;;;;;;;;;5063351;28;20476;-79
2021/12/08 14:55:38;;;;;;;9.87;7.77;;;;;;;;;;5064395;28;20466;-79
2021/12/08 14:58:05;;;;;;;14.37;7.63;;;;;;;;;;5063217;28;20476;-78
2021/12/08 15:00:32;;;;;;;11.50;7.50;;;;;;;;;;5064343;28;20495;-79
2021/12/08 15:03:00;;;;;;;11.10;7.20;;;;;;;;;;5062286;28;20471;-79
2021/12/08 15:05:27;;;;;;;13.33;8.03;;;;;;;;;;5063519;28;20467;-79
2021/12/08 15:07:55;;;;;;;15.13;8.50;;;;;;;;;;5064039;28;20475;-79
2021/12/08 15:10:24;;;;;;;11.50;6.20;;;;;;;;;;5064342;28;20472;-79
2021/12/08 15:12:50;;;;;;;14.23;7.77;;;;;;;;;;5063637;28;20504;-79